Terminal Aerodrome Forecast
Issued by NWS Wilmington, OH

Current Version | Previous Version | Graphics & Text | Print | Product List | Glossary On
Versions: 1 2 3 4 5 6 7 8 9 10 11 12 13 14 15 16 17 18 19
000
FTUS41 KILN 191456 AAA
TAFCMH
TAF AMD
KCMH 191456Z 1915/2012 28012G20KT P6SM OVC035
      TEMPO 1915/1917 BKN025
     FM192300 28012KT P6SM BKN035
     FM200200 28010KT P6SM SCT035
     FM200800 24008KT P6SM SKC
     FM201100 21008KT P6SM SKC=

USA.gov is the U.S. government's official web portal to all federal, state and local government web resources and services.